KLAXKFSO

Guest
Details From KLAX - Los Angeles Intl
To KFSO - FRANKLIN CO STATE
Flight Number -
Tags decoded
Created
Modified
Stats Distance 2,288 nm / 4,237 km
Max Altitude 0 ft / 0 m
Waypoints 3
Social Downloads 0
Likes 0
Share VATSIM

Download

Looking for another format? Having issues loading an existing format? Contact us
Advertisement - Login to hide

Notes

Requested: KLAX VTU6 RZS SERFR SERFR2 KFSO Unmatched points: VTU6 SERFR SERFR2

Route

KLAX RZS KFSO

ID Type Via Altitude Latitude Longitude Leg Dist Tot Dist Heading (true) Name
O KLAX APT - 0 ft / 0 m 33.94313˚ -118.40892˚ - 0 nm - Los Angeles Intl
RZS VOR - 0 ft / 0 m 34.50953˚ -119.77100˚ 75 nm 75 nm 297° / 296° SAN MARCUS VORTAC
O KFSO APT - 0 ft / 0 m 44.94029˚ -73.09746˚ 2211 nm 2287 nm 59° / 90° FRANKLIN CO STATE

Altitude Profile

Advertisement - Login to hide

Weather


0- 5 10 15 20 25 30 35+ Temperature / ° C

Clouds and Precipitation
Forecast for 2018-05-23 06:00 UTC. Updated 2 hours ago

Ground ~20,000 ft ~40,000 ft Winds

KLAX

Details ICAO KLAX (LAX)
Name Los Angeles Intl
Region United States
Timezone America/Los_Angeles (UTC-7.0)
Stats Elevation 126 ft / 38 m (AMSL)
Location 33.943130° -118.408917°
Runways 4
Magnetic Variation 11.968° E

METAR

KLAX 230700Z 23007KT 10SM FEW001 OVC035 16/12 A2994

Decode

TAF

KLAX 230531Z 2306/2412 VRB03KT P6SM OVC040 FM231200 14005KT P6SM BKN020 OVC035 FM231700 24007KT P6SM BKN035 FM232100 26014KT P6SM SKC FM240400 26007KT P6SM BKN025 FM241000 VRB03KT P6SM OVC025

Decode

Departure Runways

ID Width Length Bearing (true) Bearing (mag) Surface Threshold Offset Overrun Length
06L 151 ft / 46 m 8,907 ft / 2,715 m 82.98° 71.01° Concrete 0 ft / 0 m 0 ft / 0 m
06R 151 ft / 46 m 10,266 ft / 3,129 m 82.95° 70.98° Concrete 331 ft / 101 m 0 ft / 0 m
07L 151 ft / 46 m 12,069 ft / 3,679 m 82.96° 70.99° Concrete 0 ft / 0 m 0 ft / 0 m
07R 200 ft / 61 m 11,081 ft / 3,377 m 82.96° 70.99° Concrete 0 ft / 0 m 397 ft / 121 m
24L 151 ft / 46 m 10,266 ft / 3,129 m 262.97° 251.00° Concrete 0 ft / 0 m 174 ft / 53 m
24R 151 ft / 46 m 8,907 ft / 2,715 m 263.00° 251.03° Concrete 0 ft / 0 m 305 ft / 93 m
25L 200 ft / 61 m 11,081 ft / 3,377 m 262.98° 251.01° Concrete 0 ft / 0 m 1,053 ft / 321 m
25R 151 ft / 46 m 12,069 ft / 3,679 m 262.98° 251.01° Concrete 958 ft / 292 m 154 ft / 47 m

KFSO

Details ICAO KFSO
Name FRANKLIN CO STATE
Region United States
Timezone America/New_York (UTC-4.0)
Stats Elevation 228 ft / 69 m (AMSL)
Location 44.940290° -73.097460°
Runways 1
Magnetic Variation 14.446° W

METAR

KFSO 230735Z AUTO 00000KT 10SM SCT004 SCT009 OVC017 13/13 A2987 RMK AO2 T01300130

Decode

TAF

Not found

Destination Runways

ID Width Length Bearing (true) Bearing (mag) Surface Threshold Offset Overrun Length
01 60 ft / 18 m 3,002 ft / 915 m 349.49° 3.94° Asphalt 0 ft / 0 m 0 ft / 0 m
19 60 ft / 18 m 3,002 ft / 915 m 169.49° 183.94° Asphalt 0 ft / 0 m 0 ft / 0 m

Popular Alternatives